Time;durP1;ratioP1;P1;durP2;ratioP2;P2;SDS_P1;SDS_P2;PMS_P1;PMS_P2;Temp;Humidity;BMP_temperature;BMP_pressure;BME280_temperature;BME280_humidity;BME280_pressure;Samples;Min_cycle;Max_cycle;Signal;HPM_P1;HPM_P2
2021/12/03 00:01:22;;;;;;;109.43;43.70;;;0.70;99.90;;;1.18;100.00;99981.16;5039493;28;20035;-80
2021/12/03 00:03:48;;;;;;;111.93;44.15;;;0.80;99.90;;;1.20;100.00;99974.22;5038551;28;20036;-77
2021/12/03 00:06:18;;;;;;;112.30;43.45;;;0.70;99.90;;;1.29;100.00;99968.75;5042016;28;20068;-77
2021/12/03 00:08:44;;;;;;;116.63;46.08;;;0.80;99.90;;;1.13;100.00;99962.00;5038727;28;20058;-79
2021/12/03 00:11:12;;;;;;;120.70;45.17;;;0.70;99.90;;;1.20;100.00;99959.63;5056547;28;20039;-78
2021/12/03 00:13:41;;;;;;;108.95;44.95;;;0.80;99.90;;;1.23;100.00;99959.81;5056576;28;20032;-79
2021/12/03 00:16:10;;;;;;;113.10;45.05;;;0.80;99.90;;;1.25;100.00;99956.78;5056893;28;20029;-77
2021/12/03 00:18:36;;;;;;;117.90;44.78;;;0.80;99.90;;;1.22;100.00;99944.44;5056562;28;20021;-78
2021/12/03 00:21:08;;;;;;;118.50;44.83;;;0.80;99.90;;;1.32;100.00;99949.69;5039003;28;20021;-79
2021/12/03 00:23:34;;;;;;;119.03;46.42;;;0.80;99.90;;;1.30;100.00;99949.22;5056762;28;20469;-77
2021/12/03 00:26:05;;;;;;;118.90;45.95;;;0.80;99.90;;;1.31;100.00;99939.03;5057839;28;20088;-77
2021/12/03 00:28:33;;;;;;;114.45;44.13;;;0.80;99.90;;;1.35;100.00;99951.81;5057382;28;20044;-78
2021/12/03 00:31:01;;;;;;;108.32;45.65;;;0.80;99.90;;;1.34;100.00;99963.97;5038401;28;20529;-78
2021/12/03 00:33:30;;;;;;;107.63;43.08;;;0.80;99.90;;;1.34;100.00;99963.97;5038729;28;20033;-78
2021/12/03 00:36:05;;;;;;;105.88;44.50;;;0.90;99.90;;;1.37;100.00;99960.59;5056352;28;20033;-78
2021/12/03 00:38:50;;;;;;;106.95;43.60;;;0.90;99.90;;;1.45;100.00;99962.56;5056028;28;20028;-77
2021/12/03 00:41:19;;;;;;;100.95;41.45;;;0.90;99.90;;;1.43;100.00;99958.50;5056318;28;20108;-78
2021/12/03 00:43:52;;;;;;;91.80;39.78;;;0.90;99.90;;;1.45;100.00;99964.50;5074442;28;20037;-77
2021/12/03 00:46:24;;;;;;;89.18;40.42;;;0.90;99.90;;;1.44;100.00;99952.69;5054852;28;20025;-78
2021/12/03 00:48:54;;;;;;;95.10;42.10;;;0.90;99.90;;;1.45;100.00;99965.31;5036952;28;20037;-77
2021/12/03 00:51:25;;;;;;;94.15;42.65;;;0.90;99.90;;;1.38;100.00;99962.19;5036706;28;20407;-79
2021/12/03 00:53:54;;;;;;;93.00;40.28;;;0.90;99.90;;;1.31;100.00;99956.34;5055035;28;20451;-77
2021/12/03 00:56:21;;;;;;;99.68;41.67;;;0.90;99.90;;;1.37;100.00;99968.84;5055075;28;20400;-77
2021/12/03 00:58:50;;;;;;;95.80;40.40;;;0.90;99.90;;;1.26;100.00;99959.19;5055243;28;20036;-78
2021/12/03 01:01:17;;;;;;;91.78;39.15;;;0.90;99.90;;;1.28;100.00;99956.97;5037174;28;20039;-78
2021/12/03 01:03:43;;;;;;;83.80;37.92;;;0.90;99.90;;;1.20;100.00;99956.88;5054836;28;20040;-78
2021/12/03 01:06:10;;;;;;;83.55;36.67;;;0.80;99.90;;;1.23;100.00;99964.50;5056313;28;20115;-79
2021/12/03 01:08:39;;;;;;;88.53;38.30;;;0.80;99.90;;;1.24;100.00;99963.41;5059614;28;20105;-78
2021/12/03 01:11:09;;;;;;;82.18;35.97;;;0.80;99.90;;;1.26;100.00;99964.69;5056204;28;20040;-77
2021/12/03 01:13:39;;;;;;;76.28;36.60;;;0.70;99.90;;;1.17;100.00;99960.25;5055264;28;20380;-77
2021/12/03 01:16:10;;;;;;;79.70;35.20;;;0.80;99.90;;;1.18;100.00;99972.91;5037573;28;20033;-77
2021/12/03 01:18:38;;;;;;;73.90;34.95;;;0.70;99.90;;;1.19;100.00;99978.06;5055712;28;20087;-77
2021/12/03 01:21:04;;;;;;;75.35;33.72;;;0.70;99.90;;;1.16;100.00;99975.94;5051305;28;20110;-79
2021/12/03 01:23:32;;;;;;;80.15;35.53;;;0.70;99.90;;;1.10;100.00;99984.63;5035151;28;20033;-78
2021/12/03 01:25:58;;;;;;;73.78;35.92;;;0.70;99.90;;;1.20;100.00;99987.16;5017911;28;20397;-77
2021/12/03 01:28:26;;;;;;;80.38;34.72;;;0.70;99.90;;;1.26;100.00;99992.22;5018714;28;20333;-77
2021/12/03 01:30:56;;;;;;;68.13;34.53;;;0.80;99.90;;;1.25;100.00;100007.13;5036465;28;20043;-79
2021/12/03 01:33:22;;;;;;;68.15;33.42;;;0.80;99.90;;;1.37;100.00;100004.59;5036229;28;20393;-79
2021/12/03 01:35:48;;;;;;;71.22;32.50;;;0.90;99.90;;;1.45;100.00;100006.59;5019206;28;20496;-77
2021/12/03 01:38:14;;;;;;;74.93;34.22;;;0.90;99.90;;;1.41;100.00;100008.34;5036632;28;20041;-79
2021/12/03 01:40:41;;;;;;;72.22;31.90;;;1.00;99.90;;;1.42;100.00;100012.72;5019177;28;20068;-79
2021/12/03 01:43:15;;;;;;;64.28;30.55;;;1.00;99.90;;;1.42;100.00;100014.66;5035758;28;20089;-79
2021/12/03 01:45:42;;;;;;;67.88;31.38;;;1.00;99.90;;;1.50;100.00;100023.00;5035634;28;20480;-78
2021/12/03 01:48:08;;;;;;;61.95;29.88;;;1.00;99.90;;;1.53;100.00;100016.03;5035766;28;20125;-78
2021/12/03 01:50:44;;;;;;;64.15;31.13;;;1.00;99.90;;;1.51;100.00;100013.59;5036036;28;20025;-78
2021/12/03 01:53:15;;;;;;;60.30;31.60;;;1.10;99.90;;;1.56;100.00;100013.47;5034937;28;20044;-79
2021/12/03 01:55:46;;;;;;;60.95;31.33;;;1.10;99.90;;;1.62;100.00;100014.16;5036401;28;20033;-78
2021/12/03 01:58:16;;;;;;;64.32;32.13;;;1.10;99.90;;;1.51;100.00;100012.78;5036119;28;20025;-78
2021/12/03 02:01:00;;;;;;;64.80;34.40;;;1.10;99.90;;;1.52;100.00;100009.72;5035940;28;20032;-79
2021/12/03 02:03:32;;;;;;;59.08;31.88;;;1.10;99.90;;;1.61;100.00;100015.28;5018420;28;20029;-80
2021/12/03 02:06:00;;;;;;;61.95;32.40;;;1.10;99.90;;;1.60;100.00;100019.16;5035176;28;20117;-78
2021/12/03 02:08:27;;;;;;;64.13;30.33;;;1.10;99.90;;;1.56;100.00;100016.22;5035428;28;20037;-78
2021/12/03 02:10:54;;;;;;;67.88;33.72;;;1.10;99.90;;;1.64;100.00;100024.88;5036854;28;20453;-79
2021/12/03 02:13:21;;;;;;;63.67;32.75;;;1.10;99.90;;;1.63;100.00;100014.97;5043033;28;20041;-79
2021/12/03 02:15:48;;;;;;;57.22;28.98;;;1.10;99.90;;;1.59;100.00;100020.28;5045930;28;20063;-79
2021/12/03 02:18:18;;;;;;;53.97;30.65;;;1.10;99.90;;;1.54;100.00;100018.47;5040874;28;20048;-79
2021/12/03 02:20:48;;;;;;;48.30;28.85;;;1.10;99.90;;;1.62;100.00;100022.41;5018510;28;20121;-78
2021/12/03 02:23:16;;;;;;;60.50;29.45;;;1.10;99.90;;;1.62;100.00;100027.09;5034165;28;20034;-78
2021/12/03 02:25:45;;;;;;;52.58;28.55;;;1.10;99.90;;;1.67;100.00;100018.72;5016829;28;20036;-78
2021/12/03 02:28:11;;;;;;;52.50;28.65;;;1.10;99.90;;;1.69;100.00;100013.72;5034706;28;20103;-77
2021/12/03 02:30:38;;;;;;;60.95;30.73;;;1.10;99.90;;;1.73;100.00;100006.47;5034527;28;20041;-79
2021/12/03 02:33:04;;;;;;;57.80;31.45;;;1.20;99.90;;;1.77;100.00;100002.75;5015901;28;20354;-78
2021/12/03 02:35:31;;;;;;;61.35;31.13;;;1.20;99.90;;;1.68;100.00;99995.56;5034758;28;20030;-78
2021/12/03 02:37:57;;;;;;;60.97;31.10;;;1.20;99.90;;;1.72;100.00;100002.88;5034432;28;20025;-78
2021/12/03 02:40:25;;;;;;;59.97;31.70;;;1.20;99.90;;;1.73;100.00;100009.22;5034444;28;20036;-79
2021/12/03 02:42:55;;;;;;;56.85;30.20;;;1.20;99.90;;;1.78;100.00;100003.56;5016453;28;20576;-78
2021/12/03 02:45:24;;;;;;;63.65;32.33;;;1.20;99.90;;;1.77;100.00;100002.75;5034597;28;20373;-78
2021/12/03 02:47:50;;;;;;;63.83;32.33;;;1.20;99.90;;;1.79;100.00;100002.44;5034059;28;20151;-79
2021/12/03 02:50:19;;;;;;;64.35;34.17;;;1.20;99.90;;;1.85;100.00;100010.25;5063482;23;20049;-81
2021/12/03 02:52:50;;;;;;;60.92;34.88;;;1.20;99.90;;;1.79;100.00;100011.50;5052583;28;20114;-81
2021/12/03 02:55:16;;;;;;;72.72;37.10;;;1.30;99.90;;;1.79;100.00;100006.00;5053362;28;20037;-83
2021/12/03 02:57:43;;;;;;;66.28;34.13;;;1.30;99.90;;;1.81;100.00;100003.75;5053023;28;20033;-83
2021/12/03 03:00:15;;;;;;;66.43;35.15;;;1.30;99.90;;;1.81;100.00;100002.94;5053233;28;20040;-80
2021/12/03 03:02:43;;;;;;;72.28;34.75;;;1.30;99.90;;;1.78;100.00;99998.88;5051138;28;20083;-83
2021/12/03 03:05:12;;;;;;;68.13;34.95;;;1.30;99.90;;;1.72;100.00;99988.31;5051236;28;20053;-81
2021/12/03 03:07:39;;;;;;;65.47;32.42;;;1.30;99.90;;;1.77;100.00;99988.97;5034290;28;20060;-80
2021/12/03 03:10:15;;;;;;;62.47;30.65;;;1.30;99.90;;;1.78;100.00;99990.59;5034030;28;20112;-80
2021/12/03 03:12:44;;;;;;;;;;;1.30;99.90;;;1.84;100.00;99985.78;5051144;28;20029;-81
2021/12/03 03:15:12;;;;;;;60.35;29.70;;;1.30;99.90;;;1.78;100.00;99987.84;5054107;28;19916;-82
2021/12/03 03:17:40;;;;;;;63.95;28.95;;;1.40;99.90;;;1.85;100.00;99990.97;5034304;28;20041;-79
2021/12/03 03:20:09;;;;;;;53.75;27.77;;;1.30;99.90;;;1.91;100.00;100005.41;5052366;28;20029;-82
2021/12/03 03:22:39;;;;;;;59.13;29.67;;;1.30;99.90;;;1.92;100.00;100004.28;5051116;28;20037;-81
2021/12/03 03:25:14;;;;;;;60.85;31.13;;;1.40;99.90;;;1.90;100.00;100007.34;5052555;28;20033;-82
2021/12/03 03:27:42;;;;;;;59.58;28.35;;;1.40;99.90;;;1.97;100.00;100012.41;5036086;28;20501;-82
2021/12/03 03:30:13;;;;;;;53.83;28.42;;;1.40;99.90;;;1.96;100.00;100010.78;5054870;28;20040;-83
2021/12/03 03:32:41;;;;;;;54.90;29.15;;;1.40;99.90;;;1.97;100.00;100001.38;5037725;28;20489;-79
2021/12/03 03:35:11;;;;;;;56.30;29.33;;;1.40;99.90;;;2.02;100.00;100004.81;5038033;28;20032;-82
2021/12/03 03:37:38;;;;;;;59.60;31.60;;;1.50;99.90;;;2.04;100.00;99997.06;5037767;28;20056;-81
2021/12/03 03:40:06;;;;;;;66.10;30.90;;;1.50;99.90;;;2.10;100.00;99998.53;5057100;28;20041;-82
2021/12/03 03:42:33;;;;;;;64.45;30.85;;;1.50;99.90;;;2.07;100.00;99995.59;5055054;28;20040;-83
2021/12/03 03:45:09;;;;;;;60.40;30.67;;;1.50;99.90;;;2.08;100.00;100009.06;5038794;28;20039;-81
2021/12/03 03:47:37;;;;;;;;;;;1.60;99.90;;;2.11;100.00;99999.34;5038983;28;20063;-81
2021/12/03 03:50:04;;;;;;;65.60;30.90;;;1.60;99.90;;;2.16;100.00;100001.97;5038296;28;20386;-79
2021/12/03 03:52:31;;;;;;;63.15;30.08;;;1.60;99.90;;;2.19;100.00;99995.81;5056666;28;20025;-82
2021/12/03 03:54:57;;;;;;;69.32;31.90;;;1.60;99.90;;;2.18;100.00;99999.72;5056124;28;20028;-79
2021/12/03 03:57:23;;;;;;;61.03;29.95;;;1.60;99.90;;;2.21;100.00;99985.31;5056243;28;20104;-81
2021/12/03 03:59:49;;;;;;;60.22;29.13;;;1.70;99.90;;;2.16;100.00;99990.13;5038308;28;20025;-82
2021/12/03 04:02:16;;;;;;;65.00;29.27;;;1.70;99.90;;;2.25;100.00;99991.78;5054860;28;20067;-81
2021/12/03 04:04:43;;;;;;;62.47;28.23;;;1.70;99.90;;;2.21;100.00;99996.31;5038892;28;20067;-79
2021/12/03 04:07:09;;;;;;;59.38;28.90;;;1.70;99.90;;;2.22;100.00;99983.34;5055540;28;20082;-81
2021/12/03 04:09:34;;;;;;;59.80;29.92;;;1.70;99.90;;;2.22;100.00;99984.16;5063162;28;20024;-83
2021/12/03 04:12:00;;;;;;;60.85;29.33;;;1.70;99.90;;;2.20;100.00;99978.16;5056628;28;20048;-79
2021/12/03 04:14:26;;;;;;;68.20;30.90;;;1.70;99.90;;;2.19;100.00;99971.00;5039008;28;20087;-82
2021/12/03 04:16:52;;;;;;;60.08;28.33;;;1.70;99.90;;;2.16;100.00;99965.34;5055170;28;20061;-80
2021/12/03 04:19:18;;;;;;;70.97;30.60;;;1.70;99.90;;;2.21;100.00;99963.25;5056570;28;20464;-81
2021/12/03 04:21:46;;;;;;;67.82;29.35;;;1.70;99.90;;;2.12;100.00;99968.72;5046869;28;20064;-82
2021/12/03 04:24:12;;;;;;;66.35;30.23;;;1.70;99.90;;;2.10;100.00;99972.94;5036766;28;20036;-80
2021/12/03 04:26:38;;;;;;;66.28;30.20;;;1.70;99.90;;;2.18;100.00;99966.66;5036640;28;20030;-81
2021/12/03 04:29:09;;;;;;;61.88;28.25;;;1.70;99.90;;;2.10;100.00;99961.91;5018313;28;20025;-81
2021/12/03 04:31:39;;;;;;;59.92;28.13;;;1.70;99.90;;;2.16;100.00;99960.63;5018484;28;20516;-82
2021/12/03 04:34:05;;;;;;;63.78;27.55;;;1.70;99.90;;;2.21;100.00;99962.44;5018371;28;20079;-80
2021/12/03 04:36:31;;;;;;;64.95;28.80;;;1.70;99.90;;;2.18;100.00;99963.09;5036164;28;20026;-80
2021/12/03 04:38:57;;;;;;;59.58;26.77;;;1.70;99.90;;;2.28;100.00;99960.03;5037722;28;20069;-84
2021/12/03 04:41:22;;;;;;;55.58;26.80;;;1.70;99.90;;;2.24;100.00;99959.88;5019002;28;20408;-82
2021/12/03 04:43:48;;;;;;;60.38;25.83;;;1.70;99.90;;;2.26;100.00;99951.25;5017910;28;20048;-80
2021/12/03 04:46:14;;;;;;;60.47;26.83;;;1.80;99.90;;;2.33;100.00;99949.69;5035703;28;20036;-79
2021/12/03 04:48:41;;;;;;;59.65;27.65;;;1.80;99.90;;;2.33;100.00;99946.91;5018001;28;20029;-86
2021/12/03 04:51:07;;;;;;;68.43;27.92;;;1.80;99.90;;;2.36;100.00;99939.94;5023579;28;20064;-78
2021/12/03 04:53:36;;;;;;;60.28;27.60;;;1.80;99.90;;;2.30;100.00;99950.31;5057755;28;20034;-79
2021/12/03 04:56:03;;;;;;;54.38;25.80;;;1.80;99.90;;;2.33;100.00;99940.59;5057867;28;20021;-81
2021/12/03 04:58:29;;;;;;;53.30;24.83;;;1.80;99.90;;;2.34;100.00;99948.56;5039530;28;20029;-80
2021/12/03 05:00:58;;;;;;;53.22;23.77;;;1.80;99.90;;;2.33;100.00;99943.34;5018126;28;20025;-81
2021/12/03 05:03:26;;;;;;;63.33;25.42;;;1.80;99.90;;;2.32;100.00;99949.97;5031228;28;20049;-85
2021/12/03 05:05:55;;;;;;;59.70;25.55;;;1.80;99.90;;;2.31;100.00;99946.41;5021347;28;20097;-82
2021/12/03 05:08:28;;;;;;;47.47;23.38;;;1.80;99.90;;;2.32;100.00;99942.53;5036455;28;20116;-81
2021/12/03 05:10:58;;;;;;;49.25;22.77;;;1.80;99.90;;;2.34;100.00;99943.03;5019487;28;20040;-81
2021/12/03 05:13:30;;;;;;;50.65;24.05;;;1.90;99.90;;;2.38;100.00;99946.75;5036727;28;20037;-82
2021/12/03 05:15:58;;;;;;;59.50;23.67;;;1.90;99.90;;;2.43;100.00;99952.13;5036262;28;20053;-79
2021/12/03 05:18:28;;;;;;;52.35;23.20;;;1.90;99.90;;;2.38;100.00;99966.06;5036603;28;20135;-79
2021/12/03 05:21:01;;;;;;;48.03;22.00;;;1.90;99.90;;;2.40;100.00;99951.97;5038142;28;20029;-82
2021/12/03 05:23:31;;;;;;;50.72;21.80;;;1.90;99.90;;;2.40;100.00;99952.78;5038312;28;20088;-81
2021/12/03 05:26:01;;;;;;;47.75;23.20;;;1.90;99.90;;;2.48;100.00;99953.91;5038504;28;20124;-81
2021/12/03 05:28:31;;;;;;;48.17;23.52;;;1.90;99.90;;;2.46;100.00;99954.25;5054859;28;20051;-82
2021/12/03 05:30:58;;;;;;;49.42;22.88;;;1.90;99.90;;;2.47;100.00;99944.81;5038708;28;20325;-81
2021/12/03 05:33:29;;;;;;;45.15;20.50;;;1.90;99.90;;;2.41;100.00;99962.66;5055945;28;20403;-82
2021/12/03 05:35:55;;;;;;;40.85;20.45;;;1.90;99.90;;;2.42;100.00;99958.78;5037712;28;20040;-82
2021/12/03 05:38:21;;;;;;;43.28;20.67;;;1.90;99.90;;;2.52;100.00;99963.97;5037030;28;20423;-81
2021/12/03 05:40:50;;;;;;;47.88;21.45;;;2.00;99.90;;;2.54;100.00;99972.75;5037067;28;20121;-82
2021/12/03 05:43:18;;;;;;;43.22;20.30;;;2.00;99.90;;;2.48;100.00;99971.25;5054306;28;20107;-81
2021/12/03 05:45:45;;;;;;;54.70;22.02;;;2.00;99.90;;;2.56;100.00;99976.00;5036640;28;20226;-82
2021/12/03 05:48:15;;;;;;;50.03;21.92;;;2.00;99.90;;;2.56;100.00;99981.50;5055013;28;20108;-83
2021/12/03 05:50:43;;;;;;;44.75;22.25;;;2.00;99.90;;;2.59;100.00;99980.06;5053704;28;20433;-80
2021/12/03 05:53:12;;;;;;;47.10;23.00;;;2.10;99.90;;;2.57;100.00;99974.03;5036227;28;20060;-80
2021/12/03 05:55:38;;;;;;;46.47;23.13;;;2.10;99.90;;;2.64;100.00;99968.84;5054492;28;20399;-81
2021/12/03 05:58:10;;;;;;;46.40;21.20;;;2.10;99.90;;;2.61;100.00;99969.50;5054503;28;20037;-81
2021/12/03 06:00:41;;;;;;;43.58;21.80;;;2.10;99.90;;;2.61;100.00;99964.81;5036401;28;20028;-82
2021/12/03 06:03:07;;;;;;;50.15;23.77;;;2.10;99.90;;;2.66;100.00;99963.84;5054789;28;20037;-81
2021/12/03 06:05:35;;;;;;;50.55;22.45;;;2.10;99.90;;;2.62;100.00;99966.44;5038054;28;20029;-80
2021/12/03 06:08:02;;;;;;;48.53;23.05;;;2.10;99.90;;;2.64;100.00;99961.41;5053459;28;20121;-78
2021/12/03 06:10:28;;;;;;;52.97;25.90;;;2.20;99.90;;;2.70;100.00;99951.03;5053792;28;20025;-80
2021/12/03 06:12:57;;;;;;;47.65;23.92;;;2.20;99.90;;;2.75;100.00;99950.88;5053927;28;20044;-82
2021/12/03 06:15:27;;;;;;;42.92;21.13;;;2.30;99.90;;;2.78;100.00;99960.44;5055422;28;20029;-83
2021/12/03 06:17:54;;;;;;;41.10;21.17;;;2.30;99.90;;;2.80;100.00;99963.69;5037659;28;20068;-82
2021/12/03 06:20:25;;;;;;;37.85;19.73;;;2.30;99.90;;;2.80;100.00;99963.69;5054187;28;20032;-81
2021/12/03 06:22:51;;;;;;;45.70;19.98;;;2.30;99.90;;;2.89;100.00;99959.00;5048659;28;20041;-82
2021/12/03 06:25:20;;;;;;;41.13;20.20;;;2.30;99.90;;;2.90;100.00;99958.69;5020291;28;20049;-83
2021/12/03 06:27:46;;;;;;;36.42;19.60;;;2.40;99.90;;;2.85;100.00;99966.31;5035746;28;20022;-84
2021/12/03 06:30:19;;;;;;;45.80;21.25;;;2.40;99.90;;;2.91;100.00;99948.47;5017102;28;20026;-83
2021/12/03 06:32:46;;;;;;;48.78;20.58;;;2.40;99.90;;;2.87;100.00;99953.81;5032130;28;20056;-79
2021/12/03 06:35:15;;;;;;;41.60;20.50;;;2.40;99.90;;;2.90;100.00;99957.84;5015349;28;20029;-83
2021/12/03 06:37:46;;;;;;;40.95;22.48;;;2.40;99.90;;;2.92;100.00;99941.81;5015571;28;20381;-84
2021/12/03 06:40:24;;;;;;;45.22;22.13;;;2.40;99.90;;;2.87;100.00;99948.28;5015681;28;20036;-81
2021/12/03 06:42:50;;;;;;;41.63;20.50;;;2.40;99.90;;;2.94;100.00;99948.63;5014618;28;20484;-82
2021/12/03 06:45:18;;;;;;;36.28;19.30;;;2.40;99.90;;;2.96;100.00;99953.78;5031444;28;20040;-79
2021/12/03 06:47:45;;;;;;;38.63;20.20;;;2.40;99.90;;;2.99;100.00;99953.97;5034916;28;20438;-81
2021/12/03 06:50:18;;;;;;;45.22;20.80;;;2.40;99.90;;;3.04;100.00;99959.34;5015054;28;20512;-83
2021/12/03 06:55:27;;;;;;;43.45;19.48;;;2.40;99.90;;;3.01;100.00;99956.41;5032548;28;20121;-81
2021/12/03 06:57:53;;;;;;;40.78;19.65;;;2.50;99.90;;;2.96;100.00;99951.03;5031986;28;20057;-83
2021/12/03 07:00:22;;;;;;;38.08;18.67;;;2.40;99.90;;;2.96;100.00;99954.63;5032021;28;20517;-82
2021/12/03 07:02:48;;;;;;;41.60;19.10;;;2.50;99.90;;;2.95;100.00;99947.50;5031478;28;20227;-81
2021/12/03 07:05:14;;;;;;;41.35;19.63;;;2.50;99.90;;;2.97;100.00;99949.91;5032187;28;20025;-82
2021/12/03 07:07:41;;;;;;;34.40;18.23;;;2.50;99.90;;;2.91;100.00;99959.50;5032241;28;20025;-82
2021/12/03 07:10:13;;;;;;;36.75;18.67;;;2.50;99.90;;;2.92;100.00;99950.88;5031905;28;20029;-81
2021/12/03 07:12:39;;;;;;;37.72;18.13;;;2.50;99.90;;;3.03;100.00;99940.34;5032366;28;20346;-81
2021/12/03 07:15:09;;;;;;;41.58;18.70;;;2.50;99.90;;;3.05;100.00;99946.34;5032557;28;20512;-80
2021/12/03 07:17:35;;;;;;;40.97;18.98;;;2.50;99.90;;;3.01;100.00;99942.63;5014544;28;20036;-80
2021/12/03 07:20:13;;;;;;;41.53;20.48;;;2.50;99.90;;;3.11;100.00;99950.56;5030893;28;20033;-81
2021/12/03 07:22:39;;;;;;;39.38;18.73;;;2.50;99.90;;;3.08;100.00;99954.78;5049245;28;20124;-82
2021/12/03 07:25:10;;;;;;;41.10;18.75;;;2.60;99.90;;;3.09;100.00;99964.69;5034420;28;20346;-82
2021/12/03 07:27:37;;;;;;;48.10;20.63;;;2.60;99.90;;;3.13;100.00;99948.28;5033937;28;20025;-80
2021/12/03 07:30:09;;;;;;;40.95;19.75;;;2.60;99.90;;;3.06;100.00;99947.97;5051755;28;20021;-80
2021/12/03 07:32:35;;;;;;;43.13;20.55;;;2.60;99.90;;;3.07;100.00;99952.34;5051698;28;20404;-81
2021/12/03 07:35:05;;;;;;;43.13;20.45;;;2.60;99.90;;;3.09;100.00;99952.81;5051669;28;20032;-80
2021/12/03 07:37:31;;;;;;;44.75;18.77;;;2.60;99.90;;;3.10;100.00;99949.75;5033797;28;20029;-80
2021/12/03 07:40:04;;;;;;;40.97;19.92;;;2.70;99.90;;;3.18;100.00;99954.44;5051657;28;20029;-81
2021/12/03 07:42:33;;;;;;;45.17;19.98;;;2.70;99.90;;;3.14;100.00;99947.97;5033617;28;20033;-83
2021/12/03 07:45:00;;;;;;;44.63;20.13;;;2.70;99.90;;;3.26;100.00;99954.78;5052007;28;20437;-81
2021/12/03 07:47:27;;;;;;;41.83;18.95;;;2.70;99.90;;;3.30;100.00;99944.72;5033757;28;20024;-81
2021/12/03 07:49:59;;;;;;;41.35;18.95;;;2.70;99.90;;;3.29;100.00;99954.13;5051651;28;20033;-82
2021/12/03 07:52:25;;;;;;;39.55;18.45;;;2.80;99.90;;;3.30;100.00;99942.75;5050407;28;20112;-81
2021/12/03 07:54:52;;;;;;;40.97;19.52;;;2.80;99.90;;;3.33;100.00;99949.56;5034583;28;20056;-80
2021/12/03 07:57:18;;;;;;;37.65;19.02;;;2.80;99.90;;;3.34;100.00;99951.19;5034032;28;20033;-78
2021/12/03 07:59:45;;;;;;;43.88;19.98;;;2.90;99.90;;;3.29;100.00;99941.13;5051879;28;20488;-81
2021/12/03 08:02:11;;;;;;;54.35;20.52;;;2.90;99.90;;;3.29;100.00;99945.84;5033397;28;20124;-80
2021/12/03 08:04:43;;;;;;;50.88;21.48;;;2.90;99.90;;;3.33;100.00;99950.38;5051782;28;20036;-79
2021/12/03 08:07:10;;;;;;;44.05;19.02;;;2.90;99.90;;;3.36;100.00;99960.78;5034207;28;20068;-81
2021/12/03 08:09:37;;;;;;;41.15;20.42;;;2.90;99.90;;;3.41;100.00;99959.78;5051379;28;20029;-81
2021/12/03 08:12:05;;;;;;;43.00;19.58;;;2.90;99.90;;;3.47;100.00;99963.97;5033585;28;20095;-81
2021/12/03 08:14:34;;;;;;;42.40;20.08;;;2.90;99.90;;;3.43;100.00;99958.34;5052243;28;20128;-82
2021/12/03 08:17:00;;;;;;;42.10;21.30;;;3.00;99.90;;;3.43;100.00;99952.00;5055045;28;20037;-79
2021/12/03 08:19:26;;;;;;;43.35;20.02;;;3.00;99.90;;;3.44;100.00;99959.94;5037040;28;20029;-83
2021/12/03 08:21:52;;;;;;;43.00;19.38;;;3.00;99.90;;;3.57;100.00;99955.34;5043044;28;20061;-82
2021/12/03 08:24:18;;;;;;;39.03;18.50;;;3.10;99.90;;;3.64;100.00;99947.38;5035185;28;20493;-81
2021/12/03 08:26:47;;;;;;;45.08;17.52;;;3.10;99.90;;;3.66;100.00;99948.66;5036609;28;20029;-80
2021/12/03 08:29:13;;;;;;;37.25;18.60;;;3.10;99.90;;;3.67;100.00;99949.50;5036698;28;20029;-84
2021/12/03 08:31:42;;;;;;;32.00;15.93;;;3.10;99.90;;;3.63;100.00;99943.00;5035614;28;20029;-82
2021/12/03 08:34:08;;;;;;;42.53;16.58;;;3.20;99.90;;;3.70;100.00;99952.41;5017946;28;20061;-81
2021/12/03 08:36:34;;;;;;;34.38;15.40;;;3.20;99.90;;;3.69;100.00;99967.34;5034824;28;20315;-82
2021/12/03 08:39:05;;;;;;;33.75;14.95;;;3.20;99.90;;;3.78;100.00;99956.28;5016571;28;20029;-81
2021/12/03 08:41:33;;;;;;;38.28;14.52;;;3.30;99.90;;;3.79;100.00;99968.16;5034229;28;20101;-80
2021/12/03 08:43:59;;;;;;;31.85;13.88;;;3.30;99.90;;;3.89;100.00;99953.97;5034603;28;20136;-81
2021/12/03 08:46:38;;;;;;;29.10;13.52;;;3.40;99.90;;;3.88;100.00;99944.06;5016666;28;20429;-79
2021/12/03 08:49:17;;;;;;;29.90;13.15;;;3.40;99.90;;;3.86;100.00;99947.16;5016290;28;20029;-81
2021/12/03 08:56:56;;;;;;;17.38;7.90;;;3.50;99.90;;;3.88;100.00;99944.88;5077580;28;20031;-77
2021/12/03 08:59:21;;;;;;;23.45;10.40;;;3.40;99.90;;;3.86;100.00;99938.06;5076962;28;20082;-79
2021/12/03 09:01:47;;;;;;;22.58;10.18;;;3.40;99.90;;;3.95;100.00;99947.13;5076411;28;20032;-78
2021/12/03 09:04:17;;;;;;;23.73;9.60;;;3.50;99.90;;;3.86;100.00;99932.53;5075674;28;20025;-76
2021/12/03 09:06:43;;;;;;;19.35;8.00;;;3.50;99.90;;;3.95;100.00;99930.56;5076453;28;20025;-77
2021/12/03 09:09:12;;;;;;;20.00;8.25;;;3.50;99.90;;;3.97;100.00;99928.28;5075780;28;20076;-79
2021/12/03 09:11:38;;;;;;;20.17;7.75;;;3.50;99.90;;;3.96;100.00;99926.63;5075513;28;20086;-76
2021/12/03 09:14:15;;;;;;;18.75;7.45;;;3.50;99.90;;;3.88;99.23;99935.78;5076652;28;20028;-77
2021/12/03 09:16:41;;;;;;;17.10;6.85;;;3.50;99.90;;;3.91;99.94;99933.19;5075950;28;20480;-78
2021/12/03 09:19:20;;;;;;;17.92;7.13;;;3.50;99.90;;;3.85;99.47;99922.63;5074148;28;20056;-78
2021/12/03 09:21:46;;;;;;;22.15;6.10;;;3.50;99.90;;;3.88;99.69;99928.31;5075118;28;20036;-80
2021/12/03 09:24:14;;;;;;;20.90;6.80;;;3.50;99.90;;;3.95;98.27;99942.41;5076076;28;20088;-78
2021/12/03 09:26:42;;;;;;;20.42;7.20;;;3.50;99.90;;;3.90;98.39;99937.06;5074833;28;20443;-78
2021/12/03 09:29:15;;;;;;;18.13;6.35;;;3.60;99.90;;;3.97;98.85;99942.09;5075547;28;20029;-77
2021/12/03 09:31:43;;;;;;;21.88;5.45;;;3.60;99.90;;;3.96;98.13;99934.94;5074234;28;20131;-76
2021/12/03 09:34:14;;;;;;;18.98;6.13;;;3.60;99.90;;;3.95;97.86;99930.56;5076337;28;20434;-77
2021/12/03 09:36:41;;;;;;;26.30;6.68;;;3.60;99.90;;;3.99;98.89;99923.22;5073838;28;20025;-77
2021/12/03 09:39:21;;;;;;;18.95;6.40;;;3.70;99.90;;;4.08;98.80;99923.97;5074607;28;20557;-77
2021/12/03 09:41:57;;;;;;;16.27;6.80;;;3.60;99.90;;;4.09;98.34;99911.78;5074639;28;20020;-77
2021/12/03 09:44:25;;;;;;;21.75;5.85;;;3.70;99.90;;;4.14;97.70;99917.16;5074706;28;20040;-78
2021/12/03 09:46:51;;;;;;;21.65;6.45;;;3.70;99.90;;;4.22;97.94;99917.09;5072829;28;20119;-77
2021/12/03 09:49:35;;;;;;;18.52;5.97;;;3.80;99.90;;;4.31;97.83;99914.25;5074533;28;20081;-78
2021/12/03 09:55:09;;;;;;;13.32;5.30;;;3.80;99.90;;;4.23;98.89;99902.13;5075575;28;20039;-78
2021/12/03 10:00:19;;;;;;;13.45;5.85;;;3.90;99.90;;;4.41;97.53;99907.53;5076235;28;20089;-78
2021/12/03 10:37:09;;;;;;;10.55;4.03;;;4.30;99.90;;;4.76;90.93;99887.59;5076004;28;20032;-79
2021/12/03 11:06:45;;;;;;;12.10;3.78;;;4.50;99.90;;;4.77;91.26;99831.13;5066123;28;20067;-78
2021/12/03 11:20:50;;;;;;;11.57;3.80;;;4.50;99.90;;;4.62;90.18;99800.53;5077997;28;20067;-78
2021/12/03 11:34:36;;;;;;;;;;;4.50;99.90;;;4.82;89.80;99783.06;5076420;28;20106;-79
2021/12/03 11:37:24;;;;;;;6.70;3.42;;;4.50;99.90;;;4.82;90.07;99773.97;5076554;28;19962;-77
2021/12/03 12:29:14;;;;;;;12.35;3.13;;;4.40;99.90;;;4.73;90.83;99715.97;5078460;28;20041;-79
2021/12/03 14:02:20;;;;;;;10.25;3.58;;;4.60;99.90;;;4.97;85.31;99563.84;5089854;28;20044;-77
2021/12/03 14:05:10;;;;;;;12.48;3.78;;;4.70;99.90;;;5.00;85.54;99568.69;5077991;28;20028;-79
2021/12/03 14:57:34;;;;;;;9.90;3.17;;;4.50;99.90;;;4.83;86.12;99530.19;5075357;28;20047;-84
2021/12/03 15:08:53;;;;;;;7.43;2.40;;;4.50;99.90;;;4.83;86.35;99530.19;5078830;28;20031;-85
2021/12/03 15:30:56;;;;;;;6.63;2.30;;;4.30;99.90;;;4.76;86.92;99511.41;5040890;28;20153;-82
2021/12/03 15:36:14;;;;;;;7.05;2.35;;;4.30;99.90;;;4.66;87.88;99508.28;5063987;28;20043;-81
2021/12/03 15:38:54;;;;;;;9.57;2.97;;;4.30;99.90;;;4.59;88.74;99508.84;5062874;28;20092;-84